F/V Renaissance II — FMEW — position and weather

sailwx.info

Track history (hours):
 
Tides and Currents Weather Stations Pressure Air Temp Water Temp Dewpoint Dewpoint Depression Visibility Wind Speed Wind Dir Waves Ship Positions

F/V Renaissance II

Last reported at 2017-Aug-16 17:50 UTC. Time now 2017-Aug-18 01:03 UTC.
Position N 46°29' W 001°47'.

Length 18 m.

Type: Fishing. MMSI: 228216600.

Date/timePositionNaut miles runAvg speedWind from/ knotsBaromVisibWave heightAir tempDewpointWater temp
2017-Aug-16 17:50N 46°29' W 001°47'3 9.3
2017-Aug-16 17:30N 46°27' W 001°50'5 9.7
2017-Aug-16 17:00N 46°23' W 001°55'5 9.7
2017-Aug-16 16:30N 46°20' W 002°01'11 1.2
2017-Aug-16 07:08N 46°15' W 002°15'3 6.7
2017-Aug-16 06:41N 46°17' W 002°12'0 1.4
2017-Aug-16 06:27N 46°17' W 002°13'0 0.8
2017-Aug-16 06:00N 46°17' W 002°13'0 0.2
2017-Aug-16 05:24N 46°17' W 002°13'1 1.7
2017-Aug-16 04:34N 46°16' W 002°15'0 0.6
2017-Aug-16 04:28N 46°16' W 002°14'3 2.4
2017-Aug-16 03:17N 46°18' W 002°11'2 5.0
2017-Aug-16 02:55N 46°19' W 002°09'2 5.1
2017-Aug-16 02:30N 46°20' W 002°06'3 5.1
2017-Aug-16 02:00N 46°21' W 002°03'3 5.2
2017-Aug-16 01:30N 46°23' W 002°00'3 5.3
2017-Aug-16 01:00N 46°24' W 001°57'3 5.2
2017-Aug-16 00:30N 46°26' W 001°54'3 5.2
2017-Aug-16 00:00N 46°27' W 001°51'3 5.1
2017-Aug-15 23:30N 46°29' W 001°47'1 2.6
2017-Aug-15 23:00N 46°30' W 001°47'0 0.0
2017-Aug-15 22:30N 46°30' W 001°47'0 0.1
2017-Aug-15 22:00N 46°30' W 001°47'0 0.3
2017-Aug-15 21:30N 46°30' W 001°47'3 5.6
2017-Aug-15 21:00N 46°27' W 001°49'510.0
2017-Aug-15 20:30N 46°25' W 001°55'510.2
2017-Aug-15 20:00N 46°23' W 002°02'810.3
2017-Aug-15 19:13N 46°19' W 002°12'2 6.6
2017-Aug-15 18:53N 46°17' W 002°15'1 0.5
2017-Aug-15 16:37N 46°16' W 002°14'1 0.6
2017-Aug-15 15:25N 46°16' W 002°15'0 0.0
2017-Aug-15 08:39N 46°16' W 002°15'0 0.3
2017-Aug-15 07:21N 46°16' W 002°16'2 4.6
2017-Aug-15 06:51N 46°16' W 002°12'1 1.8
2017-Aug-15 06:30N 46°17' W 002°13'1 1.7
2017-Aug-15 06:01N 46°17' W 002°14'0 0.6
2017-Aug-15 05:30N 46°17' W 002°15'1 1.5
2017-Aug-15 05:01N 46°16' W 002°14'0 0.6
2017-Aug-15 04:25N 46°16' W 002°14'1 1.6
2017-Aug-15 04:01N 46°17' W 002°13'1 1.1
2017-Aug-15 03:29N 46°16' W 002°14'0 0.1
2017-Aug-15 02:21N 46°16' W 002°14'0 0.3
2017-Aug-15 02:01N 46°16' W 002°14'1 0.9
2017-Aug-15 01:03N 46°16' W 002°14'0 2.8
2017-Aug-15 01:01N 46°16' W 002°14'1 1.2
2017-Aug-15 00:18N 46°16' W 002°13'1 2.7
2017-Aug-14 23:51N 46°16' W 002°15'1 3.1
2017-Aug-14 23:30N 46°17' W 002°14'1 1.0
2017-Aug-14 22:59N 46°17' W 002°13'1 0.2
2017-Aug-14 18:04N 46°16' W 002°14'0 6.6
2017-Aug-14 18:01N 46°17' W 002°14'1 1.2
2017-Aug-14 17:28N 46°17' W 002°14'0 1.1
2017-Aug-14 17:00N 46°17' W 002°14'0 0.3
2017-Aug-14 16:31N 46°17' W 002°14'1 2.5
2017-Aug-14 15:59N 46°18' W 002°16'2 2.7
2017-Aug-14 15:23N 46°17' W 002°18'2 0.8
2017-Aug-14 13:26N 46°15' W 002°19'1 1.2
2017-Aug-14 13:01N 46°16' W 002°18'1 1.3
2017-Aug-14 12:19N 46°16' W 002°17'0 1.4
2017-Aug-14 12:01N 46°16' W 002°17'1 1.0
2017-Aug-14 11:30N 46°16' W 002°17'0 0.6
2017-Aug-14 11:01N 46°17' W 002°16'1 1.6
2017-Aug-14 10:05N 46°17' W 002°14'1 8.2
2017-Aug-14 10:01N 46°17' W 002°13'2 3.4
2017-Aug-14 09:21N 46°17' W 002°10'3 9.6
2017-Aug-14 09:00N 46°20' W 002°07'3 1.9
2017-Aug-14 07:18N 46°16' W 002°06'0 0.6
2017-Aug-14 06:52N 46°17' W 002°06'1 1.9
2017-Aug-14 06:06N 46°17' W 002°07'1 2.2
2017-Aug-14 05:46N 46°17' W 002°06'4 7.9
2017-Aug-14 05:20N 46°20' W 002°03'3 9.4
2017-Aug-14 05:00N 46°22' W 001°60'5 9.5
2017-Aug-14 04:31N 46°25' W 001°54'5 9.5
2017-Aug-14 04:01N 46°28' W 001°49'3 5.0
2017-Aug-14 03:31N 46°30' W 001°47'0 0.0
2017-Aug-14 03:01N 46°30' W 001°47'0 0.0
2017-Aug-14 02:31N 46°30' W 001°47'0 0.0
2017-Aug-14 02:00N 46°30' W 001°47'0 0.0
2017-Aug-14 01:31N 46°30' W 001°47'0 0.1
2017-Aug-14 01:01N 46°30' W 001°47'0 0.1
2017-Aug-14 00:31N 46°30' W 001°47'0 0.0
2017-Aug-14 00:01N 46°30' W 001°47'0 0.0
2017-Aug-13 23:30N 46°30' W 001°47'0 0.0
2017-Aug-13 23:01N 46°30' W 001°47'0 0.0
2017-Aug-13 22:31N 46°30' W 001°47'0 0.0
2017-Aug-13 22:01N 46°30' W 001°47'0 0.0
2017-Aug-13 21:31N 46°30' W 001°47'0 0.0
2017-Aug-13 21:01N 46°30' W 001°47'0 0.1
2017-Aug-13 20:31N 46°30' W 001°47'0 0.0
2017-Aug-13 20:01N 46°30' W 001°47'0 0.8
2017-Aug-13 19:31N 46°30' W 001°48'3 6.2
2017-Aug-13 19:01N 46°29' W 001°52'2 4.7
2017-Aug-13 18:31N 46°29' W 001°55'1 1.6
2017-Aug-13 18:00N 46°30' W 001°56'0 0.8
2017-Aug-13 17:30N 46°29' W 001°57'0 0.8
2017-Aug-13 17:00N 46°29' W 001°57'1 1.8
2017-Aug-13 16:31N 46°29' W 001°59'3 5.5
2017-Aug-13 16:01N 46°27' W 001°58'1 1.0
2017-Aug-13 15:30N 46°26' W 001°57'1 2.0
2017-Aug-13 15:01N 46°25' W 001°57'1 2.6
2017-Aug-13 14:30N 46°26' W 001°58'0 1.0
2017-Aug-13 14:01N 46°25' W 001°58'0 0.6
2017-Aug-13 13:30N 46°26' W 001°58'0 1.0
2017-Aug-13 13:00N 46°26' W 001°57'1 2.9
2017-Aug-13 12:30N 46°25' W 001°56'0 0.8
2017-Aug-13 12:00N 46°24' W 001°55'0 0.9
2017-Aug-13 11:31N 46°25' W 001°55'1 2.3
2017-Aug-13 11:01N 46°26' W 001°53'1 2.5
2017-Aug-13 10:31N 46°24' W 001°54'0 0.9
2017-Aug-13 10:01N 46°25' W 001°54'0 0.3
2017-Aug-13 09:31N 46°25' W 001°54'0 0.8
2017-Aug-13 09:01N 46°25' W 001°55'1 2.5
2017-Aug-13 08:30N 46°26' W 001°56'3 5.7
2017-Aug-13 08:00N 46°28' W 001°53'0 0.8
2017-Aug-13 07:31N 46°28' W 001°53'1 2.9
2017-Aug-13 07:01N 46°29' W 001°54'0 0.5
2017-Aug-13 06:31N 46°29' W 001°54'1 1.0
2017-Aug-13 06:01N 46°29' W 001°55'0 0.4
2017-Aug-13 05:30N 46°30' W 001°55'4 8.9
2017-Aug-13 05:00N 46°28' W 001°49'2 0.2
2017-Aug-12 18:14N 46°30' W 001°47'1 4.1
2017-Aug-12 18:00N 46°29' W 001°47'4 8.6
2017-Aug-12 17:30N 46°30' W 001°53'1 1.6
2017-Aug-12 17:00N 46°29' W 001°54'1 2.8
2017-Aug-12 16:30N 46°30' W 001°56'2 4.7
2017-Aug-12 16:00N 46°30' W 001°53'0 0.7
2017-Aug-12 15:30N 46°30' W 001°53'1 2.0
2017-Aug-12 15:00N 46°30' W 001°54'1 2.2
2017-Aug-12 14:30N 46°29' W 001°54'1 1.0
2017-Aug-12 14:00N 46°29' W 001°55'1 1.2
2017-Aug-12 13:30N 46°29' W 001°54'5 9.1
2017-Aug-12 13:00N 46°25' W 001°52'5 9.1
2017-Aug-12 12:30N 46°20' W 001°50'2 4.8
2017-Aug-12 12:00N 46°18' W 001°50'0 0.6
2017-Aug-12 11:30N 46°18' W 001°50'2 3.1
2017-Aug-12 11:00N 46°19' W 001°52'3 6.5
2017-Aug-12 10:30N 46°17' W 001°48'1 1.1
2017-Aug-12 10:00N 46°18' W 001°48'1 2.5
2017-Aug-12 09:30N 46°19' W 001°49'2 4.1
2017-Aug-12 08:59N 46°17' W 001°48'1 1.1
2017-Aug-12 08:30N 46°17' W 001°48'1 1.1
2017-Aug-12 08:00N 46°18' W 001°48'1 2.8
2017-Aug-12 07:30N 46°16' W 001°48'0 1.0
2017-Aug-12 07:00N 46°17' W 001°48'0 0.3
2017-Aug-12 06:30N 46°17' W 001°48'1 1.2
2017-Aug-12 06:00N 46°17' W 001°49'1 2.4
2017-Aug-12 05:30N 46°18' W 001°50'3 5.4
2017-Aug-12 05:00N 46°20' W 001°49'510.2
2017-Aug-12 04:30N 46°25' W 001°48'4 8.7
2017-Aug-12 04:00N 46°30' W 001°48'0 0.5
2017-Aug-12 03:30N 46°30' W 001°47'0 0.0
2017-Aug-12 03:00N 46°30' W 001°47'0 0.0
2017-Aug-12 02:30N 46°30' W 001°47'0 0.0
2017-Aug-12 02:00N 46°30' W 001°47'0 0.0
2017-Aug-12 01:30N 46°30' W 001°47'0 0.0
2017-Aug-12 01:00N 46°30' W 001°47'0 0.0
2017-Aug-12 00:30N 46°30' W 001°47'0 0.0
2017-Aug-12 00:00N 46°30' W 001°47'0 0.0
2017-Aug-11 23:30N 46°30' W 001°47'0 0.0
2017-Aug-11 23:00N 46°30' W 001°47'0 0.0
2017-Aug-11 22:30N 46°30' W 001°47'0 0.0
2017-Aug-11 22:00N 46°30' W 001°47'0 0.0
2017-Aug-11 21:30N 46°30' W 001°47'0 0.0
2017-Aug-11 21:00N 46°30' W 001°47'0 0.0
2017-Aug-11 20:30N 46°30' W 001°47'0 0.0
2017-Aug-11 20:00N 46°30' W 001°47'0 0.0
2017-Aug-11 19:30N 46°30' W 001°47'1 2.9
2017-Aug-11 19:00N 46°28' W 001°47'5 9.5
2017-Aug-11 18:30N 46°24' W 001°46'5 9.5
2017-Aug-11 18:00N 46°19' W 001°46'2 5.0
2017-Aug-11 17:30N 46°17' W 001°47'1 1.1
2017-Aug-11 17:00N 46°17' W 001°48'0 0.5
2017-Aug-11 16:30N 46°17' W 001°48'1 2.1
2017-Aug-11 16:00N 46°18' W 001°49'1 1.9
2017-Aug-11 15:30N 46°18' W 001°51'1 2.2
2017-Aug-11 15:00N 46°19' W 001°51'4 3.9
2017-Aug-11 14:00N 46°23' W 001°54'0 0.3
2017-Aug-11 13:30N 46°22' W 001°54'1 3.0
2017-Aug-11 13:00N 46°24' W 001°53'1 1.1
2017-Aug-11 12:30N 46°24' W 001°54'0 0.7
2017-Aug-11 12:00N 46°24' W 001°54'0 0.7
2017-Aug-11 11:30N 46°25' W 001°54'1 2.0
2017-Aug-11 11:00N 46°26' W 001°55'3 6.0
2017-Aug-11 10:30N 46°28' W 001°53'1 1.5
2017-Aug-11 10:00N 46°29' W 001°54'1 2.7
2017-Aug-11 09:30N 46°30' W 001°55'1 2.8
2017-Aug-11 08:59N 46°29' W 001°56'0 0.8
2017-Aug-11 08:30N 46°29' W 001°56'0 0.1
2017-Aug-11 08:00N 46°29' W 001°56'0 0.4
2017-Aug-11 07:30N 46°29' W 001°56'1 2.8
2017-Aug-11 07:00N 46°30' W 001°56'1 2.4
2017-Aug-11 06:30N 46°29' W 001°55'5 9.1
2017-Aug-11 06:00N 46°28' W 001°48'2 3.2
2017-Aug-11 05:30N 46°30' W 001°47'0 0.0
2017-Aug-11 05:00N 46°30' W 001°47'0 0.0
2017-Aug-11 04:30N 46°30' W 001°47'0 0.0
2017-Aug-11 04:00N 46°30' W 001°47'0 0.0
2017-Aug-11 03:30N 46°30' W 001°47'0 0.0
2017-Aug-11 03:00N 46°30' W 001°47'0 0.0
2017-Aug-11 02:30N 46°30' W 001°47'0 0.0
2017-Aug-11 02:00N 46°30' W 001°47'0 0.0
2017-Aug-11 01:30N 46°30' W 001°47'0 0.0
2017-Aug-11 01:00N 46°30' W 001°47'0 0.0
2017-Aug-11 00:30N 46°30' W 001°47'0 0.0
2017-Aug-11 00:00N 46°30' W 001°47'0 0.0
2017-Aug-10 23:30N 46°30' W 001°47'0 0.0
2017-Aug-10 23:00N 46°30' W 001°47'0 0.0
2017-Aug-10 22:30N 46°30' W 001°47'0 0.0
2017-Aug-10 22:00N 46°30' W 001°47'0 0.0
2017-Aug-10 21:30N 46°30' W 001°47'0 0.0
2017-Aug-10 21:00N 46°30' W 001°47'0 0.0
2017-Aug-10 20:30N 46°30' W 001°47'0 0.0
2017-Aug-10 20:00N 46°30' W 001°47'0 0.0
2017-Aug-10 19:30N 46°30' W 001°47'0 0.0
2017-Aug-10 19:00N 46°30' W 001°47'0 0.0
2017-Aug-10 18:30N 46°30' W 001°47'0 0.0
2017-Aug-10 18:00N 46°30' W 001°47'0 0.0
2017-Aug-10 17:30N 46°30' W 001°47'0 0.0
2017-Aug-10 17:00N 46°30' W 001°47'0 0.2
2017-Aug-10 16:30N 46°30' W 001°47'2 3.2
2017-Aug-10 16:00N 46°28' W 001°47'4 7.0
2017-Aug-10 15:30N 46°28' W 001°53'1 2.1
2017-Aug-10 15:00N 46°29' W 001°54'1 1.5
2017-Aug-10 14:30N 46°29' W 001°55'0 0.7
2017-Aug-10 14:00N 46°29' W 001°54'1 1.8
2017-Aug-10 13:30N 46°30' W 001°53'1 1.1
2017-Aug-10 13:00N 46°30' W 001°54'1 1.9
2017-Aug-10 12:30N 46°29' W 001°53'0 0.7
2017-Aug-10 12:00N 46°29' W 001°53'1 1.5
2017-Aug-10 11:30N 46°29' W 001°54'1 2.3
2017-Aug-10 11:00N 46°28' W 001°54'1 1.3
2017-Aug-10 10:30N 46°28' W 001°54'1 2.0
2017-Aug-10 10:00N 46°29' W 001°55'1 1.5
2017-Aug-10 09:30N 46°29' W 001°54'1 1.0
2017-Aug-10 08:57N 46°29' W 001°55'1 2.9
2017-Aug-10 08:30N 46°30' W 001°56'2 4.4
2017-Aug-10 08:00N 46°29' W 001°54'1 1.0
2017-Aug-10 07:30N 46°29' W 001°54'1 1.9
2017-Aug-10 07:00N 46°30' W 001°54'1 2.7
2017-Aug-10 06:30N 46°29' W 001°54'1 1.0
2017-Aug-10 06:00N 46°29' W 001°54'1 2.7
2017-Aug-10 05:30N 46°30' W 001°56'2 3.3
2017-Aug-10 05:00N 46°29' W 001°54'4 7.2
2017-Aug-10 04:30N 46°28' W 001°49'2 3.8
2017-Aug-10 04:00N 46°30' W 001°47'0 0.0
2017-Aug-10 03:30N 46°30' W 001°47'0 0.0
2017-Aug-10 03:00N 46°30' W 001°47'0 0.0
2017-Aug-10 02:30N 46°30' W 001°47'0 0.0
2017-Aug-10 02:00N 46°30' W 001°47'0 0.0
2017-Aug-10 01:30N 46°30' W 001°47'0 0.0
2017-Aug-10 01:00N 46°30' W 001°47'0 0.0
2017-Aug-10 00:30N 46°30' W 001°47'0 0.0
2017-Aug-10 00:00N 46°30' W 001°47'0 0.0
2017-Aug-09 23:30N 46°30' W 001°47'0 0.0
2017-Aug-09 23:00N 46°30' W 001°47'0 0.0
2017-Aug-09 22:30N 46°30' W 001°47'0 0.0
2017-Aug-09 22:00N 46°30' W 001°47'0 0.0
2017-Aug-09 21:30N 46°30' W 001°47'0 0.1
2017-Aug-09 21:00N 46°30' W 001°47'0 0.1
2017-Aug-09 20:30N 46°30' W 001°47'2 4.3
2017-Aug-09 20:00N 46°28' W 001°49'5 9.4
2017-Aug-09 19:30N 46°27' W 001°55'1 1.8
2017-Aug-09 19:00N 46°27' W 001°57'1 1.9
2017-Aug-09 18:30N 46°27' W 001°58'2 3.7
2017-Aug-09 18:00N 46°28' W 001°55'1 2.3
2017-Aug-09 17:30N 46°29' W 001°55'1 1.1
2017-Aug-09 17:00N 46°29' W 001°56'0 0.9
2017-Aug-09 16:30N 46°29' W 001°55'1 1.2
2017-Aug-09 16:00N 46°29' W 001°54'1 1.2
2017-Aug-09 15:30N 46°29' W 001°55'1 1.6
2017-Aug-09 15:00N 46°29' W 001°54'0 0.9
2017-Aug-09 14:30N 46°29' W 001°53'1 2.6
2017-Aug-09 14:00N 46°30' W 001°55'2 3.9
2017-Aug-09 13:30N 46°29' W 001°52'0 0.9
2017-Aug-09 13:00N 46°29' W 001°53'1 2.0
2017-Aug-09 12:30N 46°29' W 001°54'1 1.3
2017-Aug-09 12:00N 46°29' W 001°54'1 1.4
2017-Aug-09 11:30N 46°29' W 001°55'1 2.7
2017-Aug-09 11:00N 46°30' W 001°56'2 3.5
2017-Aug-09 10:30N 46°29' W 001°55'1 1.0
2017-Aug-09 10:00N 46°29' W 001°55'1 1.3
2017-Aug-09 09:30N 46°30' W 001°55'2 3.6
2017-Aug-09 09:00N 46°28' W 001°54'0 0.9
2017-Aug-09 08:30N 46°29' W 001°54'0 1.0
2017-Aug-09 08:00N 46°28' W 001°54'0 0.8
2017-Aug-09 07:30N 46°28' W 001°54'1 2.4
2017-Aug-09 07:00N 46°29' W 001°55'1 1.5
2017-Aug-09 06:30N 46°29' W 001°54'0 0.8
2017-Aug-09 06:00N 46°29' W 001°55'5 0.6
2017-Aug-08 22:08N 46°30' W 001°47'0 0.0
2017-Aug-08 22:00N 46°30' W 001°47'0 0.0
2017-Aug-08 21:30N 46°30' W 001°47'0 0.0
2017-Aug-08 21:00N 46°30' W 001°47'0 0.0
2017-Aug-08 20:30N 46°30' W 001°47'0 0.0
2017-Aug-08 20:00N 46°30' W 001°47'0 0.0
2017-Aug-08 19:30N 46°30' W 001°47'0 0.2
2017-Aug-08 19:00N 46°30' W 001°47'0 0.0
2017-Aug-08 18:30N 46°30' W 001°47'0 1.0
2017-Aug-08 18:00N 46°29' W 001°48'3 6.8
2017-Aug-08 17:30N 46°29' W 001°52'2 3.5
2017-Aug-08 17:00N 46°29' W 001°55'1 1.8
2017-Aug-08 16:30N 46°29' W 001°56'1 1.9
2017-Aug-08 16:00N 46°29' W 001°55'1 2.2
2017-Aug-08 15:30N 46°29' W 001°53'1 1.1
2017-Aug-08 15:00N 46°29' W 001°54'0 0.8
2017-Aug-08 14:30N 46°29' W 001°53'0 0.4
2017-Aug-08 14:00N 46°29' W 001°53'0 1.0
2017-Aug-08 13:30N 46°29' W 001°54'0 0.3
2017-Aug-08 13:00N 46°29' W 001°54'0 0.9
2017-Aug-08 12:30N 46°29' W 001°55'1 1.5
2017-Aug-08 12:00N 46°29' W 001°55'1 2.4
2017-Aug-08 11:30N 46°29' W 001°56'0 0.4
2017-Aug-08 11:00N 46°28' W 001°56'1 1.3
2017-Aug-08 10:30N 46°29' W 001°56'1 1.8
2017-Aug-08 10:00N 46°28' W 001°57'1 1.3
2017-Aug-08 09:30N 46°28' W 001°57'1 1.1
2017-Aug-08 09:00N 46°28' W 001°57'0 0.7
2017-Aug-08 08:30N 46°28' W 001°57'2 4.1
2017-Aug-08 08:00N 46°27' W 001°55'0 1.0
2017-Aug-08 07:30N 46°27' W 001°55'1 1.2
2017-Aug-08 07:00N 46°28' W 001°55'1 1.8
2017-Aug-08 06:30N 46°28' W 001°57'1 1.1
2017-Aug-08 06:00N 46°28' W 001°57'11 1.1
2017-Aug-07 19:16N 46°18' W 001°50'0 1.2
2017-Aug-07 18:55N 46°18' W 001°51'0 1.2
2017-Aug-07 18:30N 46°18' W 001°51'1 1.2
2017-Aug-07 18:00N 46°19' W 001°51'1 1.9
2017-Aug-07 17:30N 46°20' W 001°51'1 2.2
2017-Aug-07 17:00N 46°20' W 001°53'1 2.5
2017-Aug-07 16:30N 46°22' W 001°53'1 1.5
2017-Aug-07 16:00N 46°22' W 001°54'1 2.5
2017-Aug-07 15:30N 46°23' W 001°55'1 2.7
2017-Aug-07 15:00N 46°22' W 001°54'0 0.7
2017-Aug-07 14:30N 46°22' W 001°54'1 1.8
2017-Aug-07 14:00N 46°23' W 001°54'3 5.9
2017-Aug-07 13:30N 46°26' W 001°54'2 4.5
2017-Aug-07 13:00N 46°28' W 001°55'0 1.0
2017-Aug-07 12:30N 46°28' W 001°56'0 0.1
2017-Aug-07 12:00N 46°28' W 001°56'1 2.6
2017-Aug-07 11:30N 46°29' W 001°57'0 0.9
2017-Aug-07 11:00N 46°29' W 001°56'0 0.7
2017-Aug-07 10:30N 46°29' W 001°56'2 3.1
2017-Aug-07 10:00N 46°28' W 001°57'1 2.8
2017-Aug-07 09:30N 46°27' W 001°59'1 1.0
2017-Aug-07 09:00N 46°27' W 001°58'0 0.6
2017-Aug-07 08:30N 46°27' W 001°58'4 7.0
2017-Aug-07 08:00N 46°24' W 001°55'0 1.0
2017-Aug-07 07:30N 46°25' W 001°55'1 2.6
2017-Aug-07 07:00N 46°25' W 001°53'3 6.4
2017-Aug-07 06:30N 46°23' W 001°55'1 1.3
2017-Aug-07 06:00N 46°23' W 001°55'1 2.5
2017-Aug-07 05:30N 46°24' W 001°57'0 1.0
2017-Aug-07 05:00N 46°24' W 001°56'3 6.5
2017-Aug-07 04:30N 46°26' W 001°52'5 9.6
2017-Aug-07 04:00N 46°29' W 001°47'  
Track history (hours):
 
Tides and Currents Weather Stations Pressure Air Temp Water Temp Dewpoint Dewpoint Depression Visibility Wind Speed Wind Dir Waves Ship Positions

F/V Renaissance II

Last reported at 2017-Aug-16 17:50 UTC. Time now 2017-Aug-18 01:03 UTC.
Position N 46°29' W 001°47'.

Length 18 m.

Type: Fishing. MMSI: 228216600.

Date/timePositionNaut miles runAvg speedWind from/ knotsBaromVisibWave heightAir tempDewpointWater temp
2017-Aug-16 17:50N 46°29' W 001°47'3 9.3
2017-Aug-16 17:30N 46°27' W 001°50'5 9.7
2017-Aug-16 17:00N 46°23' W 001°55'5 9.7
2017-Aug-16 16:30N 46°20' W 002°01'11 1.2
2017-Aug-16 07:08N 46°15' W 002°15'3 6.7
2017-Aug-16 06:41N 46°17' W 002°12'0 1.4
2017-Aug-16 06:27N 46°17' W 002°13'0 0.8
2017-Aug-16 06:00N 46°17' W 002°13'0 0.2
2017-Aug-16 05:24N 46°17' W 002°13'1 1.7
2017-Aug-16 04:34N 46°16' W 002°15'0 0.6
2017-Aug-16 04:28N 46°16' W 002°14'3 2.4
2017-Aug-16 03:17N 46°18' W 002°11'2 5.0
2017-Aug-16 02:55N 46°19' W 002°09'2 5.1
2017-Aug-16 02:30N 46°20' W 002°06'3 5.1
2017-Aug-16 02:00N 46°21' W 002°03'3 5.2
2017-Aug-16 01:30N 46°23' W 002°00'3 5.3
2017-Aug-16 01:00N 46°24' W 001°57'3 5.2
2017-Aug-16 00:30N 46°26' W 001°54'3 5.2
2017-Aug-16 00:00N 46°27' W 001°51'3 5.1
2017-Aug-15 23:30N 46°29' W 001°47'1 2.6
2017-Aug-15 23:00N 46°30' W 001°47'0 0.0
2017-Aug-15 22:30N 46°30' W 001°47'0 0.1
2017-Aug-15 22:00N 46°30' W 001°47'0 0.3
2017-Aug-15 21:30N 46°30' W 001°47'3 5.6
2017-Aug-15 21:00N 46°27' W 001°49'510.0
2017-Aug-15 20:30N 46°25' W 001°55'510.2
2017-Aug-15 20:00N 46°23' W 002°02'810.3
2017-Aug-15 19:13N 46°19' W 002°12'2 6.6
2017-Aug-15 18:53N 46°17' W 002°15'1 0.5
2017-Aug-15 16:37N 46°16' W 002°14'1 0.6
2017-Aug-15 15:25N 46°16' W 002°15'0 0.0
2017-Aug-15 08:39N 46°16' W 002°15'0 0.3
2017-Aug-15 07:21N 46°16' W 002°16'2 4.6
2017-Aug-15 06:51N 46°16' W 002°12'1 1.8
2017-Aug-15 06:30N 46°17' W 002°13'1 1.7
2017-Aug-15 06:01N 46°17' W 002°14'0 0.6
2017-Aug-15 05:30N 46°17' W 002°15'1 1.5
2017-Aug-15 05:01N 46°16' W 002°14'0 0.6
2017-Aug-15 04:25N 46°16' W 002°14'1 1.6
2017-Aug-15 04:01N 46°17' W 002°13'1 1.1
2017-Aug-15 03:29N 46°16' W 002°14'0 0.1
2017-Aug-15 02:21N 46°16' W 002°14'0 0.3
2017-Aug-15 02:01N 46°16' W 002°14'1 0.9
2017-Aug-15 01:03N 46°16' W 002°14'0 2.8
2017-Aug-15 01:01N 46°16' W 002°14'1 1.2
2017-Aug-15 00:18N 46°16' W 002°13'1 2.7
2017-Aug-14 23:51N 46°16' W 002°15'1 3.1
2017-Aug-14 23:30N 46°17' W 002°14'1 1.0
2017-Aug-14 22:59N 46°17' W 002°13'1 0.2
2017-Aug-14 18:04N 46°16' W 002°14'0 6.6
2017-Aug-14 18:01N 46°17' W 002°14'1 1.2
2017-Aug-14 17:28N 46°17' W 002°14'0 1.1
2017-Aug-14 17:00N 46°17' W 002°14'0 0.3
2017-Aug-14 16:31N 46°17' W 002°14'1 2.5
2017-Aug-14 15:59N 46°18' W 002°16'2 2.7
2017-Aug-14 15:23N 46°17' W 002°18'2 0.8
2017-Aug-14 13:26N 46°15' W 002°19'1 1.2
2017-Aug-14 13:01N 46°16' W 002°18'1 1.3
2017-Aug-14 12:19N 46°16' W 002°17'0 1.4
2017-Aug-14 12:01N 46°16' W 002°17'1 1.0
2017-Aug-14 11:30N 46°16' W 002°17'0 0.6
2017-Aug-14 11:01N 46°17' W 002°16'1 1.6
2017-Aug-14 10:05N 46°17' W 002°14'1 8.2
2017-Aug-14 10:01N 46°17' W 002°13'2 3.4
2017-Aug-14 09:21N 46°17' W 002°10'3 9.6
2017-Aug-14 09:00N 46°20' W 002°07'3 1.9
2017-Aug-14 07:18N 46°16' W 002°06'0 0.6
2017-Aug-14 06:52N 46°17' W 002°06'1 1.9
2017-Aug-14 06:06N 46°17' W 002°07'1 2.2
2017-Aug-14 05:46N 46°17' W 002°06'4 7.9
2017-Aug-14 05:20N 46°20' W 002°03'3 9.4
2017-Aug-14 05:00N 46°22' W 001°60'5 9.5
2017-Aug-14 04:31N 46°25' W 001°54'5 9.5
2017-Aug-14 04:01N 46°28' W 001°49'3 5.0
2017-Aug-14 03:31N 46°30' W 001°47'0 0.0
2017-Aug-14 03:01N 46°30' W 001°47'0 0.0
2017-Aug-14 02:31N 46°30' W 001°47'0 0.0
2017-Aug-14 02:00N 46°30' W 001°47'0 0.0
2017-Aug-14 01:31N 46°30' W 001°47'0 0.1
2017-Aug-14 01:01N 46°30' W 001°47'0 0.1
2017-Aug-14 00:31N 46°30' W 001°47'0 0.0
2017-Aug-14 00:01N 46°30' W 001°47'0 0.0
2017-Aug-13 23:30N 46°30' W 001°47'0 0.0
2017-Aug-13 23:01N 46°30' W 001°47'0 0.0
2017-Aug-13 22:31N 46°30' W 001°47'0 0.0
2017-Aug-13 22:01N 46°30' W 001°47'0 0.0
2017-Aug-13 21:31N 46°30' W 001°47'0 0.0
2017-Aug-13 21:01N 46°30' W 001°47'0 0.1
2017-Aug-13 20:31N 46°30' W 001°47'0 0.0
2017-Aug-13 20:01N 46°30' W 001°47'0 0.8
2017-Aug-13 19:31N 46°30' W 001°48'3 6.2
2017-Aug-13 19:01N 46°29' W 001°52'2 4.7
2017-Aug-13 18:31N 46°29' W 001°55'1 1.6
2017-Aug-13 18:00N 46°30' W 001°56'0 0.8
2017-Aug-13 17:30N 46°29' W 001°57'0 0.8
2017-Aug-13 17:00N 46°29' W 001°57'1 1.8
2017-Aug-13 16:31N 46°29' W 001°59'3 5.5
2017-Aug-13 16:01N 46°27' W 001°58'1 1.0
2017-Aug-13 15:30N 46°26' W 001°57'1 2.0
2017-Aug-13 15:01N 46°25' W 001°57'1 2.6
2017-Aug-13 14:30N 46°26' W 001°58'0 1.0
2017-Aug-13 14:01N 46°25' W 001°58'0 0.6
2017-Aug-13 13:30N 46°26' W 001°58'0 1.0
2017-Aug-13 13:00N 46°26' W 001°57'1 2.9
2017-Aug-13 12:30N 46°25' W 001°56'0 0.8
2017-Aug-13 12:00N 46°24' W 001°55'0 0.9
2017-Aug-13 11:31N 46°25' W 001°55'1 2.3
2017-Aug-13 11:01N 46°26' W 001°53'1 2.5
2017-Aug-13 10:31N 46°24' W 001°54'0 0.9
2017-Aug-13 10:01N 46°25' W 001°54'0 0.3
2017-Aug-13 09:31N 46°25' W 001°54'0 0.8
2017-Aug-13 09:01N 46°25' W 001°55'1 2.5
2017-Aug-13 08:30N 46°26' W 001°56'3 5.7
2017-Aug-13 08:00N 46°28' W 001°53'0 0.8
2017-Aug-13 07:31N 46°28' W 001°53'1 2.9
2017-Aug-13 07:01N 46°29' W 001°54'0 0.5
2017-Aug-13 06:31N 46°29' W 001°54'1 1.0
2017-Aug-13 06:01N 46°29' W 001°55'0 0.4
2017-Aug-13 05:30N 46°30' W 001°55'4 8.9
2017-Aug-13 05:00N 46°28' W 001°49'2 0.2
2017-Aug-12 18:14N 46°30' W 001°47'1 4.1
2017-Aug-12 18:00N 46°29' W 001°47'4 8.6
2017-Aug-12 17:30N 46°30' W 001°53'1 1.6
2017-Aug-12 17:00N 46°29' W 001°54'1 2.8
2017-Aug-12 16:30N 46°30' W 001°56'2 4.7
2017-Aug-12 16:00N 46°30' W 001°53'0 0.7
2017-Aug-12 15:30N 46°30' W 001°53'1 2.0
2017-Aug-12 15:00N 46°30' W 001°54'1 2.2
2017-Aug-12 14:30N 46°29' W 001°54'1 1.0
2017-Aug-12 14:00N 46°29' W 001°55'1 1.2
2017-Aug-12 13:30N 46°29' W 001°54'5 9.1
2017-Aug-12 13:00N 46°25' W 001°52'5 9.1
2017-Aug-12 12:30N 46°20' W 001°50'2 4.8
2017-Aug-12 12:00N 46°18' W 001°50'0 0.6
2017-Aug-12 11:30N 46°18' W 001°50'2 3.1
2017-Aug-12 11:00N 46°19' W 001°52'3 6.5
2017-Aug-12 10:30N 46°17' W 001°48'1 1.1
2017-Aug-12 10:00N 46°18' W 001°48'1 2.5
2017-Aug-12 09:30N 46°19' W 001°49'2 4.1
2017-Aug-12 08:59N 46°17' W 001°48'1 1.1
2017-Aug-12 08:30N 46°17' W 001°48'1 1.1
2017-Aug-12 08:00N 46°18' W 001°48'1 2.8
2017-Aug-12 07:30N 46°16' W 001°48'0 1.0
2017-Aug-12 07:00N 46°17' W 001°48'0 0.3
2017-Aug-12 06:30N 46°17' W 001°48'1 1.2
2017-Aug-12 06:00N 46°17' W 001°49'1 2.4
2017-Aug-12 05:30N 46°18' W 001°50'3 5.4
2017-Aug-12 05:00N 46°20' W 001°49'510.2
2017-Aug-12 04:30N 46°25' W 001°48'4 8.7
2017-Aug-12 04:00N 46°30' W 001°48'0 0.5
2017-Aug-12 03:30N 46°30' W 001°47'0 0.0
2017-Aug-12 03:00N 46°30' W 001°47'0 0.0
2017-Aug-12 02:30N 46°30' W 001°47'0 0.0
2017-Aug-12 02:00N 46°30' W 001°47'0 0.0
2017-Aug-12 01:30N 46°30' W 001°47'0 0.0
2017-Aug-12 01:00N 46°30' W 001°47'0 0.0
2017-Aug-12 00:30N 46°30' W 001°47'0 0.0
2017-Aug-12 00:00N 46°30' W 001°47'0 0.0
2017-Aug-11 23:30N 46°30' W 001°47'0 0.0
2017-Aug-11 23:00N 46°30' W 001°47'0 0.0
2017-Aug-11 22:30N 46°30' W 001°47'0 0.0
2017-Aug-11 22:00N 46°30' W 001°47'0 0.0
2017-Aug-11 21:30N 46°30' W 001°47'0 0.0
2017-Aug-11 21:00N 46°30' W 001°47'0 0.0
2017-Aug-11 20:30N 46°30' W 001°47'0 0.0
2017-Aug-11 20:00N 46°30' W 001°47'0 0.0
2017-Aug-11 19:30N 46°30' W 001°47'1 2.9
2017-Aug-11 19:00N 46°28' W 001°47'5 9.5
2017-Aug-11 18:30N 46°24' W 001°46'5 9.5
2017-Aug-11 18:00N 46°19' W 001°46'2 5.0
2017-Aug-11 17:30N 46°17' W 001°47'1 1.1
2017-Aug-11 17:00N 46°17' W 001°48'0 0.5
2017-Aug-11 16:30N 46°17' W 001°48'1 2.1
2017-Aug-11 16:00N 46°18' W 001°49'1 1.9
2017-Aug-11 15:30N 46°18' W 001°51'1 2.2
2017-Aug-11 15:00N 46°19' W 001°51'4 3.9
2017-Aug-11 14:00N 46°23' W 001°54'0 0.3
2017-Aug-11 13:30N 46°22' W 001°54'1 3.0
2017-Aug-11 13:00N 46°24' W 001°53'1 1.1
2017-Aug-11 12:30N 46°24' W 001°54'0 0.7
2017-Aug-11 12:00N 46°24' W 001°54'0 0.7
2017-Aug-11 11:30N 46°25' W 001°54'1 2.0
2017-Aug-11 11:00N 46°26' W 001°55'3 6.0
2017-Aug-11 10:30N 46°28' W 001°53'1 1.5
2017-Aug-11 10:00N 46°29' W 001°54'1 2.7
2017-Aug-11 09:30N 46°30' W 001°55'1 2.8
2017-Aug-11 08:59N 46°29' W 001°56'0 0.8
2017-Aug-11 08:30N 46°29' W 001°56'0 0.1
2017-Aug-11 08:00N 46°29' W 001°56'0 0.4
2017-Aug-11 07:30N 46°29' W 001°56'1 2.8
2017-Aug-11 07:00N 46°30' W 001°56'1 2.4
2017-Aug-11 06:30N 46°29' W 001°55'5 9.1
2017-Aug-11 06:00N 46°28' W 001°48'2 3.2
2017-Aug-11 05:30N 46°30' W 001°47'0 0.0
2017-Aug-11 05:00N 46°30' W 001°47'0 0.0
2017-Aug-11 04:30N 46°30' W 001°47'0 0.0
2017-Aug-11 04:00N 46°30' W 001°47'0 0.0
2017-Aug-11 03:30N 46°30' W 001°47'0 0.0
2017-Aug-11 03:00N 46°30' W 001°47'0 0.0
2017-Aug-11 02:30N 46°30' W 001°47'0 0.0
2017-Aug-11 02:00N 46°30' W 001°47'0 0.0
2017-Aug-11 01:30N 46°30' W 001°47'0 0.0
2017-Aug-11 01:00N 46°30' W 001°47'0 0.0
2017-Aug-11 00:30N 46°30' W 001°47'0 0.0
2017-Aug-11 00:00N 46°30' W 001°47'0 0.0
2017-Aug-10 23:30N 46°30' W 001°47'0 0.0
2017-Aug-10 23:00N 46°30' W 001°47'0 0.0
2017-Aug-10 22:30N 46°30' W 001°47'0 0.0
2017-Aug-10 22:00N 46°30' W 001°47'0 0.0
2017-Aug-10 21:30N 46°30' W 001°47'0 0.0
2017-Aug-10 21:00N 46°30' W 001°47'0 0.0
2017-Aug-10 20:30N 46°30' W 001°47'0 0.0
2017-Aug-10 20:00N 46°30' W 001°47'0 0.0
2017-Aug-10 19:30N 46°30' W 001°47'0 0.0
2017-Aug-10 19:00N 46°30' W 001°47'0 0.0
2017-Aug-10 18:30N 46°30' W 001°47'0 0.0
2017-Aug-10 18:00N 46°30' W 001°47'0 0.0
2017-Aug-10 17:30N 46°30' W 001°47'0 0.0
2017-Aug-10 17:00N 46°30' W 001°47'0 0.2
2017-Aug-10 16:30N 46°30' W 001°47'2 3.2
2017-Aug-10 16:00N 46°28' W 001°47'4 7.0
2017-Aug-10 15:30N 46°28' W 001°53'1 2.1
2017-Aug-10 15:00N 46°29' W 001°54'1 1.5
2017-Aug-10 14:30N 46°29' W 001°55'0 0.7
2017-Aug-10 14:00N 46°29' W 001°54'1 1.8
2017-Aug-10 13:30N 46°30' W 001°53'1 1.1
2017-Aug-10 13:00N 46°30' W 001°54'1 1.9
2017-Aug-10 12:30N 46°29' W 001°53'0 0.7
2017-Aug-10 12:00N 46°29' W 001°53'1 1.5
2017-Aug-10 11:30N 46°29' W 001°54'1 2.3
2017-Aug-10 11:00N 46°28' W 001°54'1 1.3
2017-Aug-10 10:30N 46°28' W 001°54'1 2.0
2017-Aug-10 10:00N 46°29' W 001°55'1 1.5
2017-Aug-10 09:30N 46°29' W 001°54'1 1.0
2017-Aug-10 08:57N 46°29' W 001°55'1 2.9
2017-Aug-10 08:30N 46°30' W 001°56'2 4.4
2017-Aug-10 08:00N 46°29' W 001°54'1 1.0
2017-Aug-10 07:30N 46°29' W 001°54'1 1.9
2017-Aug-10 07:00N 46°30' W 001°54'1 2.7
2017-Aug-10 06:30N 46°29' W 001°54'1 1.0
2017-Aug-10 06:00N 46°29' W 001°54'1 2.7
2017-Aug-10 05:30N 46°30' W 001°56'2 3.3
2017-Aug-10 05:00N 46°29' W 001°54'4 7.2
2017-Aug-10 04:30N 46°28' W 001°49'2 3.8
2017-Aug-10 04:00N 46°30' W 001°47'0 0.0
2017-Aug-10 03:30N 46°30' W 001°47'0 0.0
2017-Aug-10 03:00N 46°30' W 001°47'0 0.0
2017-Aug-10 02:30N 46°30' W 001°47'0 0.0
2017-Aug-10 02:00N 46°30' W 001°47'0 0.0
2017-Aug-10 01:30N 46°30' W 001°47'0 0.0
2017-Aug-10 01:00N 46°30' W 001°47'0 0.0
2017-Aug-10 00:30N 46°30' W 001°47'0 0.0
2017-Aug-10 00:00N 46°30' W 001°47'0 0.0
2017-Aug-09 23:30N 46°30' W 001°47'0 0.0
2017-Aug-09 23:00N 46°30' W 001°47'0 0.0
2017-Aug-09 22:30N 46°30' W 001°47'0 0.0
2017-Aug-09 22:00N 46°30' W 001°47'0 0.0
2017-Aug-09 21:30N 46°30' W 001°47'0 0.1
2017-Aug-09 21:00N 46°30' W 001°47'0 0.1
2017-Aug-09 20:30N 46°30' W 001°47'2 4.3
2017-Aug-09 20:00N 46°28' W 001°49'5 9.4
2017-Aug-09 19:30N 46°27' W 001°55'1 1.8
2017-Aug-09 19:00N 46°27' W 001°57'1 1.9
2017-Aug-09 18:30N 46°27' W 001°58'2 3.7
2017-Aug-09 18:00N 46°28' W 001°55'1 2.3
2017-Aug-09 17:30N 46°29' W 001°55'1 1.1
2017-Aug-09 17:00N 46°29' W 001°56'0 0.9
2017-Aug-09 16:30N 46°29' W 001°55'1 1.2
2017-Aug-09 16:00N 46°29' W 001°54'1 1.2
2017-Aug-09 15:30N 46°29' W 001°55'1 1.6
2017-Aug-09 15:00N 46°29' W 001°54'0 0.9
2017-Aug-09 14:30N 46°29' W 001°53'1 2.6
2017-Aug-09 14:00N 46°30' W 001°55'2 3.9
2017-Aug-09 13:30N 46°29' W 001°52'0 0.9
2017-Aug-09 13:00N 46°29' W 001°53'1 2.0
2017-Aug-09 12:30N 46°29' W 001°54'1 1.3
2017-Aug-09 12:00N 46°29' W 001°54'1 1.4
2017-Aug-09 11:30N 46°29' W 001°55'1 2.7
2017-Aug-09 11:00N 46°30' W 001°56'2 3.5
2017-Aug-09 10:30N 46°29' W 001°55'1 1.0
2017-Aug-09 10:00N 46°29' W 001°55'1 1.3
2017-Aug-09 09:30N 46°30' W 001°55'2 3.6
2017-Aug-09 09:00N 46°28' W 001°54'0 0.9
2017-Aug-09 08:30N 46°29' W 001°54'0 1.0
2017-Aug-09 08:00N 46°28' W 001°54'0 0.8
2017-Aug-09 07:30N 46°28' W 001°54'1 2.4
2017-Aug-09 07:00N 46°29' W 001°55'1 1.5
2017-Aug-09 06:30N 46°29' W 001°54'0 0.8
2017-Aug-09 06:00N 46°29' W 001°55'5 0.6
2017-Aug-08 22:08N 46°30' W 001°47'0 0.0
2017-Aug-08 22:00N 46°30' W 001°47'0 0.0
2017-Aug-08 21:30N 46°30' W 001°47'0 0.0
2017-Aug-08 21:00N 46°30' W 001°47'0 0.0
2017-Aug-08 20:30N 46°30' W 001°47'0 0.0
2017-Aug-08 20:00N 46°30' W 001°47'0 0.0
2017-Aug-08 19:30N 46°30' W 001°47'0 0.2
2017-Aug-08 19:00N 46°30' W 001°47'0 0.0
2017-Aug-08 18:30N 46°30' W 001°47'0 1.0
2017-Aug-08 18:00N 46°29' W 001°48'3 6.8
2017-Aug-08 17:30N 46°29' W 001°52'2 3.5
2017-Aug-08 17:00N 46°29' W 001°55'1 1.8
2017-Aug-08 16:30N 46°29' W 001°56'1 1.9
2017-Aug-08 16:00N 46°29' W 001°55'1 2.2
2017-Aug-08 15:30N 46°29' W 001°53'1 1.1
2017-Aug-08 15:00N 46°29' W 001°54'0 0.8
2017-Aug-08 14:30N 46°29' W 001°53'0 0.4
2017-Aug-08 14:00N 46°29' W 001°53'0 1.0
2017-Aug-08 13:30N 46°29' W 001°54'0 0.3
2017-Aug-08 13:00N 46°29' W 001°54'0 0.9
2017-Aug-08 12:30N 46°29' W 001°55'1 1.5
2017-Aug-08 12:00N 46°29' W 001°55'1 2.4
2017-Aug-08 11:30N 46°29' W 001°56'0 0.4
2017-Aug-08 11:00N 46°28' W 001°56'1 1.3
2017-Aug-08 10:30N 46°29' W 001°56'1 1.8
2017-Aug-08 10:00N 46°28' W 001°57'1 1.3
2017-Aug-08 09:30N 46°28' W 001°57'1 1.1
2017-Aug-08 09:00N 46°28' W 001°57'0 0.7
2017-Aug-08 08:30N 46°28' W 001°57'2 4.1
2017-Aug-08 08:00N 46°27' W 001°55'0 1.0
2017-Aug-08 07:30N 46°27' W 001°55'1 1.2
2017-Aug-08 07:00N 46°28' W 001°55'1 1.8
2017-Aug-08 06:30N 46°28' W 001°57'1 1.1
2017-Aug-08 06:00N 46°28' W 001°57'11 1.1
2017-Aug-07 19:16N 46°18' W 001°50'0 1.2
2017-Aug-07 18:55N 46°18' W 001°51'0 1.2
2017-Aug-07 18:30N 46°18' W 001°51'1 1.2
2017-Aug-07 18:00N 46°19' W 001°51'1 1.9
2017-Aug-07 17:30N 46°20' W 001°51'1 2.2
2017-Aug-07 17:00N 46°20' W 001°53'1 2.5
2017-Aug-07 16:30N 46°22' W 001°53'1 1.5
2017-Aug-07 16:00N 46°22' W 001°54'1 2.5
2017-Aug-07 15:30N 46°23' W 001°55'1 2.7
2017-Aug-07 15:00N 46°22' W 001°54'0 0.7
2017-Aug-07 14:30N 46°22' W 001°54'1 1.8
2017-Aug-07 14:00N 46°23' W 001°54'3 5.9
2017-Aug-07 13:30N 46°26' W 001°54'2 4.5
2017-Aug-07 13:00N 46°28' W 001°55'0 1.0
2017-Aug-07 12:30N 46°28' W 001°56'0 0.1
2017-Aug-07 12:00N 46°28' W 001°56'1 2.6
2017-Aug-07 11:30N 46°29' W 001°57'0 0.9
2017-Aug-07 11:00N 46°29' W 001°56'0 0.7
2017-Aug-07 10:30N 46°29' W 001°56'2 3.1
2017-Aug-07 10:00N 46°28' W 001°57'1 2.8
2017-Aug-07 09:30N 46°27' W 001°59'1 1.0
2017-Aug-07 09:00N 46°27' W 001°58'0 0.6
2017-Aug-07 08:30N 46°27' W 001°58'4 7.0
2017-Aug-07 08:00N 46°24' W 001°55'0 1.0
2017-Aug-07 07:30N 46°25' W 001°55'1 2.6
2017-Aug-07 07:00N 46°25' W 001°53'3 6.4
2017-Aug-07 06:30N 46°23' W 001°55'1 1.3
2017-Aug-07 06:00N 46°23' W 001°55'1 2.5
2017-Aug-07 05:30N 46°24' W 001°57'0 1.0
2017-Aug-07 05:00N 46°24' W 001°56'3 6.5
2017-Aug-07 04:30N 46°26' W 001°52'5 9.6
2017-Aug-07 04:00N 46°29' W 001°47'  

Dump ship's entire track history